Time;durP1;ratioP1;P1;durP2;ratioP2;P2;SDS_P1;SDS_P2;PMS_P1;PMS_P2;Temp;Humidity;BMP_temperature;BMP_pressure;BME280_temperature;BME280_humidity;BME280_pressure;Samples;Min_cycle;Max_cycle;Signal;HPM_P1;HPM_P2
2021/10/14 00:00:26;;;;;;;96.07;56.05;;;;;;;4.76;100.00;99640.06;2071270;28;20236;-80
2021/10/14 00:01:29;;;;;;;99.00;56.33;;;;;;;4.74;100.00;99631.59;2079723;28;20227;-80
2021/10/14 00:02:31;;;;;;;95.45;56.83;;;;;;;4.74;100.00;99628.94;2072137;28;20675;-81
2021/10/14 00:03:33;;;;;;;96.40;57.13;;;;;;;4.75;100.00;99637.69;2079629;28;20545;-81
2021/10/14 00:04:33;;;;;;;93.95;56.28;;;;;;;4.76;100.00;99629.50;2071690;28;20223;-81
2021/10/14 00:05:37;;;;;;;100.90;58.17;;;;;;;4.80;100.00;99632.47;2071426;28;20231;-81
2021/10/14 00:06:37;;;;;;;93.97;55.00;;;;;;;4.76;100.00;99628.69;2081089;28;20231;-81
2021/10/14 00:07:41;;;;;;;93.53;56.17;;;;;;;4.72;100.00;99633.69;2079608;28;20250;-81
2021/10/14 00:08:42;;;;;;;98.47;57.03;;;;;;;4.72;100.00;99624.97;2072176;28;20675;-81
2021/10/14 00:09:46;;;;;;;97.28;55.17;;;;;;;4.71;100.00;99633.94;2072035;28;20282;-81
2021/10/14 00:10:46;;;;;;;96.72;56.17;;;;;;;4.69;100.00;99628.06;2072217;28;20311;-81
2021/10/14 00:11:51;;;;;;;95.13;56.23;;;;;;;4.66;100.00;99626.72;2071239;28;20227;-81
2021/10/14 00:12:52;;;;;;;96.07;57.38;;;;;;;4.68;100.00;99626.47;2071240;28;20749;-79
2021/10/14 00:13:56;;;;;;;91.00;57.17;;;;;;;4.67;100.00;99620.38;2070771;28;20248;-81
2021/10/14 00:14:57;;;;;;;92.10;56.10;;;;;;;4.69;100.00;99634.19;2071298;28;20694;-81
2021/10/14 00:15:59;;;;;;;99.33;55.70;;;;;;;4.69;100.00;99628.06;2071992;28;20581;-81
2021/10/14 00:17:00;;;;;;;99.13;57.25;;;;;;;4.68;100.00;99631.75;2071062;28;20227;-81
2021/10/14 00:18:02;;;;;;;101.88;57.35;;;;;;;4.69;100.00;99623.63;2062885;28;20279;-81
2021/10/14 00:19:03;;;;;;;91.78;57.90;;;;;;;4.69;100.00;99625.44;2071183;28;20227;-81
2021/10/14 00:20:06;;;;;;;93.47;56.47;;;;;;;4.66;100.00;99628.56;2070973;28;20228;-81
2021/10/14 00:21:09;;;;;;;93.50;57.17;;;;;;;4.66;100.00;99632.00;2070884;28;20669;-79
2021/10/14 00:22:12;;;;;;;95.00;57.28;;;;;;;4.67;100.00;99630.16;2077707;28;20223;-81
2021/10/14 00:23:12;;;;;;;95.90;56.75;;;;;;;4.69;100.00;99628.06;2079582;28;20224;-80
2021/10/14 00:24:14;;;;;;;92.17;54.97;;;;;;;4.65;100.00;99626.97;2073296;28;20248;-81
2021/10/14 00:25:15;;;;;;;96.25;56.78;;;;;;;4.64;100.00;99633.31;2072055;28;20238;-81
2021/10/14 00:26:18;;;;;;;89.50;55.83;;;;;;;4.62;100.00;99627.47;2071997;28;20238;-81
2021/10/14 00:27:19;;;;;;;91.00;55.55;;;;;;;4.59;100.00;99622.66;2071990;28;20220;-81
2021/10/14 00:28:25;;;;;;;90.00;55.87;;;;;;;4.61;100.00;99625.88;2070963;28;20271;-80
2021/10/14 00:29:27;;;;;;;104.53;56.28;;;;;;;4.63;100.00;99631.69;2071018;28;20281;-81
2021/10/14 00:30:29;;;;;;;86.63;54.10;;;;;;;4.60;100.00;99622.41;2071396;28;20228;-81
2021/10/14 00:31:29;;;;;;;94.45;56.78;;;;;;;4.64;100.00;99620.09;2063132;28;20228;-81
2021/10/14 00:32:31;;;;;;;90.57;55.53;;;;;;;4.63;100.00;99627.22;2074575;28;20671;-81
2021/10/14 00:33:32;;;;;;;94.03;55.47;;;;;;;4.61;100.00;99623.22;2080026;28;20231;-80
2021/10/14 00:34:34;;;;;;;86.83;54.80;;;;;;;4.61;100.00;99625.88;2070877;28;20224;-81
2021/10/14 00:35:36;;;;;;;88.65;55.83;;;;;;;4.59;100.00;99620.00;2071265;28;20236;-81
2021/10/14 00:36:44;;;;;;;89.43;55.80;;;;;;;4.59;100.00;99622.66;2078668;28;20670;-80
2021/10/14 00:37:46;;;;;;;93.95;56.63;;;;;;;4.59;100.00;99614.72;2064702;28;20603;-81
2021/10/14 00:38:50;;;;;;;87.72;54.05;;;;;;;4.70;100.00;99616.47;2070911;28;20655;-80
2021/10/14 00:40:20;;;;;;;93.40;54.53;;;;;;;4.64;100.00;99626.16;2062445;28;20298;-81
2021/10/14 00:41:22;;;;;;;89.00;54.08;;;;;;;4.63;100.00;99627.22;2074659;28;20262;-81
2021/10/14 00:42:23;;;;;;;92.07;54.30;;;;;;;4.62;100.00;99632.75;2070723;28;20667;-81
2021/10/14 00:43:25;;;;;;;90.13;56.53;;;;;;;4.60;100.00;99637.47;2071083;28;20327;-81
2021/10/14 00:44:26;;;;;;;96.10;57.13;;;;;;;4.59;100.00;99635.84;2071013;28;20227;-80
2021/10/14 00:45:28;;;;;;;93.10;57.67;;;;;;;4.57;100.00;99636.09;2071258;28;20232;-81
2021/10/14 00:46:29;;;;;;;93.40;57.92;;;;;;;4.62;100.00;99625.63;2070876;28;20219;-81
2021/10/14 00:47:31;;;;;;;91.97;56.43;;;;;;;4.59;100.00;99625.28;2072744;28;20224;-81
2021/10/14 00:48:32;;;;;;;100.35;57.65;;;;;;;4.57;100.00;99622.91;2073534;28;20588;-81
2021/10/14 00:49:39;;;;;;;93.13;56.30;;;;;;;4.61;100.00;99631.16;2072266;28;20292;-81
2021/10/14 00:50:40;;;;;;;90.30;56.33;;;;;;;4.60;100.00;99629.53;2064928;28;20286;-80
2021/10/14 00:51:43;;;;;;;99.17;56.97;;;;;;;4.61;100.00;99628.50;2072576;28;20287;-80
2021/10/14 00:52:44;;;;;;;97.53;56.78;;;;;;;4.58;100.00;99634.25;2079542;28;20223;-80
2021/10/14 00:53:46;;;;;;;97.03;58.63;;;;;;;4.58;100.00;99628.97;2072603;28;20231;-80
2021/10/14 00:54:50;;;;;;;93.28;56.95;;;;;;;4.54;100.00;99632.13;2073204;28;20587;-80
2021/10/14 00:55:54;;;;;;;88.80;56.65;;;;;;;4.58;100.00;99631.63;2080667;28;20228;-81
2021/10/14 00:56:56;;;;;;;99.28;57.80;;;;;;;4.56;100.00;99631.88;2080306;28;20577;-79
2021/10/14 00:58:01;;;;;;;98.22;57.78;;;;;;;4.59;100.00;99630.56;2080530;28;20239;-80
2021/10/14 00:59:02;;;;;;;97.97;58.72;;;;;;;4.55;100.00;99627.63;2080444;28;20678;-80
2021/10/14 01:00:05;;;;;;;97.45;57.33;;;;;;;4.56;100.00;99631.06;2080564;28;20243;-80
2021/10/14 01:01:06;;;;;;;93.68;56.80;;;;;;;4.53;100.00;99633.16;2072806;28;20216;-80
2021/10/14 01:02:08;;;;;;;93.40;57.67;;;;;;;4.53;100.00;99627.88;2072500;28;20236;-80
2021/10/14 01:03:10;;;;;;;95.47;55.67;;;;;;;4.56;100.00;99631.06;2072277;28;20224;-80
2021/10/14 01:04:12;;;;;;;96.38;57.13;;;;;;;4.54;100.00;99631.31;2073355;28;20239;-80
2021/10/14 01:05:13;;;;;;;98.35;57.08;;;;;;;4.52;100.00;99628.13;2072246;28;20743;-80
2021/10/14 01:06:14;;;;;;;93.67;57.30;;;;;;;4.55;100.00;99630.28;2072098;28;20643;-80
2021/10/14 01:07:16;;;;;;;100.82;58.47;;;;;;;4.58;100.00;99637.69;2072436;28;20553;-80
2021/10/14 01:08:20;;;;;;;94.53;57.65;;;;;;;4.56;100.00;99628.44;2080742;28;20216;-81
2021/10/14 01:09:23;;;;;;;95.63;56.53;;;;;;;4.53;100.00;99630.53;2072640;28;20220;-81
2021/10/14 01:10:24;;;;;;;98.28;57.03;;;;;;;4.56;100.00;99633.72;2073954;28;20278;-80
2021/10/14 01:11:26;;;;;;;93.45;57.35;;;;;;;4.55;100.00;99632.91;2072339;28;20231;-80
2021/10/14 01:12:27;;;;;;;96.13;56.72;;;;;;;4.56;100.00;99633.72;2072432;28;20228;-80
2021/10/14 01:13:29;;;;;;;92.37;56.73;;;;;;;4.56;100.00;99639.78;2072444;28;20219;-81
2021/10/14 01:14:30;;;;;;;93.57;56.20;;;;;;;4.56;100.00;99639.78;2071627;28;20333;-80
2021/10/14 01:15:32;;;;;;;94.60;57.42;;;;;;;4.56;100.00;99641.63;2080650;28;20287;-80
2021/10/14 01:16:38;;;;;;;98.10;56.78;;;;;;;4.51;100.00;99637.88;2072897;28;20228;-81
2021/10/14 01:17:40;;;;;;;97.50;57.67;;;;;;;4.56;100.00;99644.28;2072657;28;20231;-80
2021/10/14 01:18:41;;;;;;;105.82;57.47;;;;;;;4.51;100.00;99637.06;2073760;28;20224;-81
2021/10/14 01:19:44;;;;;;;96.00;58.10;;;;;;;4.51;100.00;99635.22;2080601;28;20284;-81
2021/10/14 01:20:45;;;;;;;98.75;57.97;;;;;;;4.53;100.00;99635.00;2080408;28;20227;-80
2021/10/14 01:21:49;;;;;;;102.43;58.30;;;;;;;4.53;100.00;99630.53;2072351;28;20683;-81
2021/10/14 01:22:49;;;;;;;95.95;57.35;;;;;;;4.51;100.00;99627.28;2064728;28;20255;-80
2021/10/14 01:23:53;;;;;;;101.30;58.10;;;;;;;4.53;100.00;99630.53;2072542;28;20614;-81
2021/10/14 01:24:56;;;;;;;94.97;57.83;;;;;;;4.52;100.00;99634.22;2078412;28;20672;-81
2021/10/14 01:25:58;;;;;;;93.95;55.78;;;;;;;4.53;100.00;99637.66;2072585;28;20228;-80
2021/10/14 01:27:01;;;;;;;98.88;56.25;;;;;;;4.53;100.00;99640.28;2072181;28;20220;-80
2021/10/14 01:28:03;;;;;;;95.07;56.90;;;;;;;4.52;100.00;99636.84;2072603;28;20694;-80
2021/10/14 01:29:04;;;;;;;94.03;56.05;;;;;;;4.54;100.00;99637.41;2080518;28;20568;-80
2021/10/14 01:30:07;;;;;;;98.80;57.87;;;;;;;4.53;100.00;99633.16;2080282;28;20307;-81
2021/10/14 01:31:08;;;;;;;95.18;57.13;;;;;;;4.54;100.00;99637.41;2072161;28;20647;-80
2021/10/14 01:32:10;;;;;;;96.68;56.63;;;;;;;4.57;100.00;99638.75;2080442;28;20598;-80
2021/10/14 01:33:12;;;;;;;95.93;59.17;;;;;;;4.55;100.00;99640.84;2080672;28;20230;-80
2021/10/14 01:34:15;;;;;;;99.78;57.35;;;;;;;4.57;100.00;99635.31;2080004;28;20690;-81
2021/10/14 01:35:18;;;;;;;93.53;55.97;;;;;;;4.56;100.00;99639.00;2080547;28;20245;-81
2021/10/14 01:36:20;;;;;;;100.63;58.38;;;;;;;4.58;100.00;99639.53;2080404;28;20227;-81
2021/10/14 01:37:21;;;;;;;97.93;57.90;;;;;;;4.58;100.00;99642.19;2072515;28;20672;-81
2021/10/14 01:38:24;;;;;;;92.63;57.17;;;;;;;4.57;100.00;99645.88;2071764;28;20251;-77
2021/10/14 01:39:26;;;;;;;95.50;56.63;;;;;;;4.58;100.00;99652.75;2080087;28;20300;-81
2021/10/14 01:40:28;;;;;;;93.15;56.60;;;;;;;4.61;100.00;99650.44;2080544;28;20227;-80
2021/10/14 01:41:28;;;;;;;92.90;57.47;;;;;;;4.60;100.00;99653.31;2080348;28;20227;-80
2021/10/14 01:42:30;;;;;;;98.27;56.60;;;;;;;4.58;100.00;99650.13;2072449;28;20295;-81
2021/10/14 01:43:31;;;;;;;95.40;56.85;;;;;;;4.57;100.00;99646.69;2080235;28;20234;-80
2021/10/14 01:44:33;;;;;;;90.63;56.80;;;;;;;4.58;100.00;99643.00;2072237;28;20244;-81
2021/10/14 01:45:34;;;;;;;95.40;58.15;;;;;;;4.60;100.00;99648.81;2080531;28;20231;-81
2021/10/14 01:46:36;;;;;;;95.73;56.57;;;;;;;4.63;100.00;99650.22;2081190;28;20231;-80
2021/10/14 01:47:37;;;;;;;91.78;57.10;;;;;;;4.60;100.00;99651.47;2088074;28;20773;-78
2021/10/14 01:48:38;;;;;;;100.72;57.63;;;;;;;4.61;100.00;99658.38;2088359;28;20642;-80
2021/10/14 01:49:39;;;;;;;103.75;59.85;;;;;;;4.60;100.00;99648.03;2088675;28;20573;-81
2021/10/14 01:50:42;;;;;;;91.80;56.37;;;;;;;4.60;100.00;99646.19;2080994;28;20243;-81
2021/10/14 01:51:43;;;;;;;100.90;58.72;;;;;;;4.64;100.00;99655.25;2081146;28;20211;-80
2021/10/14 01:52:47;;;;;;;90.00;57.20;;;;;;;4.62;100.00;99654.69;2080216;28;20314;-80
2021/10/14 01:53:48;;;;;;;101.10;59.38;;;;;;;4.64;100.00;99652.59;2080432;28;20215;-80
2021/10/14 01:54:50;;;;;;;93.17;57.87;;;;;;;4.63;100.00;99652.84;2080286;28;20228;-81
2021/10/14 01:55:51;;;;;;;102.30;57.53;;;;;;;4.63;100.00;99655.50;2080300;28;20236;-80
2021/10/14 01:56:53;;;;;;;99.93;57.47;;;;;;;4.63;100.00;99655.50;2079832;28;20231;-79
2021/10/14 01:57:53;;;;;;;92.00;56.50;;;;;;;4.62;100.00;99664.47;2080402;28;20306;-80
2021/10/14 01:58:57;;;;;;;97.80;59.23;;;;;;;4.61;100.00;99660.22;2081045;28;20230;-81
2021/10/14 01:59:59;;;;;;;92.10;57.72;;;;;;;4.60;100.00;99667.31;2088775;28;20328;-80
2021/10/14 02:01:01;;;;;;;99.32;57.80;;;;;;;4.60;100.00;99656.75;2088463;28;20222;-80
2021/10/14 02:02:02;;;;;;;100.88;57.17;;;;;;;4.64;100.00;99665.00;2080484;28;20706;-80
2021/10/14 02:03:04;;;;;;;95.20;58.50;;;;;;;4.63;100.00;99660.78;2080272;28;20234;-81
2021/10/14 02:04:04;;;;;;;94.50;57.63;;;;;;;4.64;100.00;99665.81;2080442;28;20677;-80
2021/10/14 02:05:07;;;;;;;97.67;58.47;;;;;;;4.64;100.00;99662.38;2072286;28;20643;-81
2021/10/14 02:06:10;;;;;;;92.97;55.78;;;;;;;4.69;100.00;99667.72;2079972;28;20585;-80
2021/10/14 02:07:11;;;;;;;101.57;57.67;;;;;;;4.66;100.00;99666.38;2088364;28;20218;-80
2021/10/14 02:08:12;;;;;;;95.68;56.85;;;;;;;4.72;100.00;99664.59;2088754;28;20242;-80
2021/10/14 02:09:14;;;;;;;101.53;58.10;;;;;;;4.72;100.00;99664.59;2080024;28;20223;-79
2021/10/14 02:10:15;;;;;;;101.57;59.75;;;;;;;4.69;100.00;99659.78;2071850;28;20965;-81
2021/10/14 02:11:17;;;;;;;95.57;57.77;;;;;;;4.67;100.00;99665.31;2088507;28;20706;-81
2021/10/14 02:12:17;;;;;;;103.15;58.45;;;;;;;4.68;100.00;99672.19;2080227;28;20572;-80
2021/10/14 02:13:23;;;;;;;101.47;58.83;;;;;;;4.70;100.00;99674.63;2080219;28;20247;-81
2021/10/14 02:14:24;;;;;;;98.45;57.55;;;;;;;4.68;100.00;99671.41;2087970;28;20577;-80
2021/10/14 02:15:25;;;;;;;94.68;56.22;;;;;;;4.66;100.00;99665.56;2088382;28;20254;-81
2021/10/14 02:16:26;;;;;;;99.80;57.75;;;;;;;4.67;100.00;99664.53;2088265;28;20218;-81
2021/10/14 02:17:28;;;;;;;102.63;59.60;;;;;;;4.64;100.00;99665.81;2088575;28;20276;-81
2021/10/14 02:18:29;;;;;;;94.22;56.17;;;;;;;4.65;100.00;99663.97;2080289;28;20223;-81
2021/10/14 02:19:31;;;;;;;102.20;58.90;;;;;;;4.68;100.00;99663.47;2071956;28;20220;-81
2021/10/14 02:20:34;;;;;;;95.72;57.05;;;;;;;4.68;100.00;99664.28;2072099;28;20679;-81
2021/10/14 02:21:37;;;;;;;90.50;55.13;;;;;;;4.65;100.00;99656.03;2072150;28;20266;-81
2021/10/14 02:22:38;;;;;;;94.60;55.80;;;;;;;4.64;100.00;99659.72;2079652;28;20231;-80
2021/10/14 02:23:40;;;;;;;93.70;55.90;;;;;;;4.66;100.00;99665.56;2079926;28;20227;-81
2021/10/14 02:24:41;;;;;;;99.15;55.05;;;;;;;4.63;100.00;99655.50;2072375;28;20726;-81
2021/10/14 02:25:42;;;;;;;90.07;55.37;;;;;;;4.61;100.00;99658.38;2071860;28;20650;-81
2021/10/14 02:26:43;;;;;;;92.72;55.85;;;;;;;4.62;100.00;99659.97;2071900;28;20281;-80
2021/10/14 02:27:46;;;;;;;89.63;54.97;;;;;;;4.62;100.00;99656.53;2072179;28;20228;-81
2021/10/14 02:28:50;;;;;;;99.20;56.45;;;;;;;4.61;100.00;99657.59;2080260;28;20733;-81
2021/10/14 02:29:51;;;;;;;92.83;55.80;;;;;;;4.58;100.00;99653.56;2088541;28;20241;-81
2021/10/14 02:30:52;;;;;;;96.25;55.17;;;;;;;4.64;100.00;99660.53;2079492;28;20332;-80
2021/10/14 02:31:54;;;;;;;89.63;53.33;;;;;;;4.63;100.00;99666.06;2071655;28;20231;-80
2021/10/14 02:32:55;;;;;;;92.32;54.05;;;;;;;4.64;100.00;99667.66;2071804;28;20227;-80
2021/10/14 02:33:57;;;;;;;83.67;53.63;;;;;;;4.62;100.00;99667.09;2071898;28;20230;-81
2021/10/14 02:34:58;;;;;;;89.97;54.28;;;;;;;4.58;100.00;99663.34;2080060;28;20227;-81
2021/10/14 02:36:00;;;;;;;91.75;51.58;;;;;;;4.61;100.00;99676.06;2074015;28;20228;-81
2021/10/14 02:37:02;;;;;;;93.55;51.95;;;;;;;4.56;100.00;99668.06;2063876;28;20324;-80
2021/10/14 02:38:04;;;;;;;86.28;51.80;;;;;;;4.49;100.00;99665.56;2072085;28;20686;-80
2021/10/14 02:39:05;;;;;;;87.00;52.13;;;;;;;4.46;100.00;99672.16;2071720;28;20216;-81
2021/10/14 02:40:08;;;;;;;87.73;51.57;;;;;;;4.42;100.00;99676.28;2079585;28;20235;-81
2021/10/14 02:41:10;;;;;;;98.90;51.58;;;;;;;4.39;100.00;99674.16;2079502;28;20223;-80
2021/10/14 02:42:12;;;;;;;93.72;52.70;;;;;;;4.38;100.00;99672.53;2080736;28;20223;-80
2021/10/14 02:43:13;;;;;;;87.35;52.25;;;;;;;4.35;100.00;99677.53;2079838;28;20231;-80
2021/10/14 02:44:15;;;;;;;87.80;50.17;;;;;;;4.30;100.00;99666.88;2071754;28;20690;-80
2021/10/14 02:45:15;;;;;;;84.82;50.78;;;;;;;4.27;100.00;99677.91;2072146;28;20679;-80
2021/10/14 02:46:17;;;;;;;92.40;52.43;;;;;;;4.23;100.00;99674.94;2071889;28;20612;-80
2021/10/14 02:47:19;;;;;;;79.55;50.65;;;;;;;4.24;100.00;99676.53;2071817;28;20303;-80
2021/10/14 02:48:22;;;;;;;81.85;50.83;;;;;;;4.17;100.00;99673.25;2080232;28;20625;-81
2021/10/14 02:49:23;;;;;;;95.78;52.75;;;;;;;4.16;100.00;99680.38;2071238;28;20686;-80
2021/10/14 02:50:24;;;;;;;90.03;51.47;;;;;;;4.16;100.00;99669.78;2071669;28;20587;-81
2021/10/14 02:51:25;;;;;;;93.45;52.00;;;;;;;4.10;100.00;99672.63;2079935;28;20223;-80
2021/10/14 02:52:28;;;;;;;92.90;54.20;;;;;;;4.06;100.00;99685.47;2071550;28;20311;-80
2021/10/14 02:53:30;;;;;;;92.18;51.53;;;;;;;4.05;100.00;99669.88;2072064;28;20281;-80
2021/10/14 02:54:31;;;;;;;88.25;51.20;;;;;;;4.00;100.00;99669.78;2079800;28;20297;-81
2021/10/14 02:55:34;;;;;;;91.35;51.75;;;;;;;3.98;100.00;99675.28;2079917;28;20230;-80
2021/10/14 02:56:35;;;;;;;86.93;50.83;;;;;;;4.00;100.00;99675.06;2079683;28;20644;-80
2021/10/14 02:57:36;;;;;;;81.37;48.63;;;;;;;3.96;100.00;99680.03;2079869;28;20219;-80
2021/10/14 02:58:37;;;;;;;91.50;50.33;;;;;;;3.95;100.00;99681.84;2079270;28;20235;-79
2021/10/14 02:59:39;;;;;;;94.80;51.27;;;;;;;3.91;100.00;99680.75;2071504;28;20227;-80
2021/10/14 03:00:39;;;;;;;85.88;48.50;;;;;;;3.89;100.00;99677.53;2075538;28;20219;-81
2021/10/14 03:01:44;;;;;;;83.43;49.10;;;;;;;3.85;100.00;99672.97;2072983;28;20262;-80
2021/10/14 03:02:47;;;;;;;88.07;50.70;;;;;;;3.83;100.00;99675.84;2071822;28;20232;-80
2021/10/14 03:03:49;;;;;;;88.10;49.40;;;;;;;3.82;100.00;99673.41;2079734;28;20600;-80
2021/10/14 03:04:50;;;;;;;89.18;50.05;;;;;;;3.79;100.00;99677.34;2071608;28;20232;-80
2021/10/14 03:05:51;;;;;;;87.43;50.23;;;;;;;3.79;100.00;99685.25;2071794;28;20223;-80
2021/10/14 03:06:52;;;;;;;88.30;50.65;;;;;;;3.78;100.00;99680.22;2071351;28;20224;-80
2021/10/14 03:07:55;;;;;;;88.73;50.90;;;;;;;3.77;100.00;99684.69;2063631;28;20252;-79
2021/10/14 03:08:56;;;;;;;89.88;52.60;;;;;;;3.75;100.00;99676.22;2071547;28;20283;-81
2021/10/14 03:10:00;;;;;;;91.95;51.60;;;;;;;3.74;100.00;99682.53;2070790;28;20714;-81
2021/10/14 03:11:01;;;;;;;93.80;52.45;;;;;;;3.74;100.00;99685.19;2071622;28;20653;-80
2021/10/14 03:12:03;;;;;;;92.83;51.73;;;;;;;3.75;100.00;99684.16;2079851;28;20215;-80
2021/10/14 03:13:04;;;;;;;91.85;51.85;;;;;;;3.76;100.00;99685.75;2072256;28;20742;-81
2021/10/14 03:14:06;;;;;;;92.63;52.70;;;;;;;3.78;100.00;99685.50;2072444;28;20610;-80
2021/10/14 03:15:07;;;;;;;89.53;52.17;;;;;;;3.75;100.00;99685.97;2071147;28;20303;-78
2021/10/14 03:16:12;;;;;;;93.28;53.42;;;;;;;3.77;100.00;99689.19;2079441;28;20220;-80
2021/10/14 03:17:13;;;;;;;90.13;52.38;;;;;;;3.72;100.00;99689.88;2079426;28;20227;-81
2021/10/14 03:18:14;;;;;;;83.73;50.83;;;;;;;3.69;100.00;99690.34;2072288;28;20223;-81
2021/10/14 03:19:15;;;;;;;89.05;53.67;;;;;;;3.66;100.00;99685.56;2070945;28;20230;-80
2021/10/14 03:20:17;;;;;;;92.93;51.30;;;;;;;3.67;100.00;99689.78;2063461;28;20236;-80
2021/10/14 03:21:20;;;;;;;85.72;53.03;;;;;;;3.63;100.00;99692.09;2071622;28;20231;-80
2021/10/14 03:22:22;;;;;;;95.07;53.17;;;;;;;3.64;100.00;99695.53;2072402;28;20212;-80
2021/10/14 03:23:25;;;;;;;90.82;52.35;;;;;;;3.65;100.00;99691.88;2071067;28;20778;-80
2021/10/14 03:24:26;;;;;;;92.70;53.75;;;;;;;3.61;100.00;99693.34;2071304;28;20223;-80
2021/10/14 03:25:27;;;;;;;91.40;52.72;;;;;;;3.58;100.00;99691.19;2071467;28;20779;-80
2021/10/14 03:26:29;;;;;;;97.67;54.43;;;;;;;3.58;100.00;99694.63;2063362;28;20692;-80
2021/10/14 03:27:30;;;;;;;100.22;55.80;;;;;;;3.55;100.00;99689.00;2071313;28;20712;-81
2021/10/14 03:28:32;;;;;;;91.73;50.77;;;;;;;3.57;100.00;99697.50;2071475;28;20673;-80
2021/10/14 03:29:34;;;;;;;97.72;53.92;;;;;;;3.61;100.00;99699.44;2071634;28;20220;-80
2021/10/14 03:30:36;;;;;;;103.20;54.38;;;;;;;3.62;100.00;99702.88;2072244;28;20239;-81
2021/10/14 03:31:37;;;;;;;88.50;52.72;;;;;;;3.57;100.00;99700.16;2071680;28;20553;-79
2021/10/14 03:32:39;;;;;;;83.83;47.83;;;;;;;3.57;100.00;99705.44;2072254;28;20234;-80
2021/10/14 03:33:39;;;;;;;92.82;50.42;;;;;;;3.53;100.00;99704.28;2070931;28;20235;-81
2021/10/14 03:34:41;;;;;;;83.10;48.47;;;;;;;3.47;100.00;99699.94;2071373;28;20295;-80
2021/10/14 03:35:42;;;;;;;83.50;48.88;;;;;;;3.43;100.00;99707.53;2062814;28;20248;-80
2021/10/14 03:36:44;;;;;;;89.40;51.27;;;;;;;3.44;100.00;99708.31;2071337;28;20224;-80
2021/10/14 03:37:47;;;;;;;89.90;51.45;;;;;;;3.42;100.00;99699.84;2071420;28;20298;-80
2021/10/14 03:38:50;;;;;;;99.10;52.47;;;;;;;3.42;100.00;99708.56;2071515;28;20240;-80
2021/10/14 03:39:51;;;;;;;93.72;53.95;;;;;;;3.39;100.00;99701.13;2070783;28;20243;-80
2021/10/14 03:40:53;;;;;;;95.00;53.93;;;;;;;3.39;100.00;99715.09;2071107;28;20231;-80
2021/10/14 03:41:54;;;;;;;95.38;53.72;;;;;;;3.38;100.00;99713.47;2070916;28;20232;-80
2021/10/14 03:42:55;;;;;;;93.27;52.90;;;;;;;3.42;100.00;99713.03;2071164;28;20787;-80
2021/10/14 03:43:58;;;;;;;92.63;52.20;;;;;;;3.43;100.00;99714.63;2071499;28;20666;-80
2021/10/14 03:45:00;;;;;;;105.05;53.95;;;;;;;3.44;100.00;99717.03;2071275;28;20224;-80
2021/10/14 03:46:01;;;;;;;86.43;50.78;;;;;;;3.43;100.00;99720.72;2071361;28;20223;-80
2021/10/14 03:47:03;;;;;;;89.20;52.20;;;;;;;3.44;100.00;99721.50;2071135;28;20251;-80
2021/10/14 03:48:04;;;;;;;101.22;53.63;;;;;;;3.44;100.00;99721.50;2071299;28;20274;-81
2021/10/14 03:49:06;;;;;;;97.55;54.00;;;;;;;3.45;100.00;99717.84;2071220;28;20638;-80
2021/10/14 03:50:09;;;;;;;93.50;51.15;;;;;;;3.48;100.00;99720.81;2068968;28;20231;-79
2021/10/14 03:51:11;;;;;;;90.40;52.63;;;;;;;3.49;100.00;99727.69;2064922;28;20250;-79
2021/10/14 03:52:11;;;;;;;84.45;48.72;;;;;;;3.50;100.00;99725.84;2063146;28;20617;-80
2021/10/14 03:53:13;;;;;;;88.23;49.00;;;;;;;3.49;100.00;99724.25;2071076;28;20310;-80
2021/10/14 03:54:15;;;;;;;92.43;52.00;;;;;;;3.51;100.00;99719.53;2071206;28;20220;-80
2021/10/14 03:55:17;;;;;;;84.13;49.40;;;;;;;3.50;100.00;99720.59;2071316;28;20220;-80
2021/10/14 03:56:18;;;;;;;85.28;50.75;;;;;;;3.48;100.00;99718.19;2071388;28;20231;-80
2021/10/14 03:57:20;;;;;;;89.10;51.43;;;;;;;3.49;100.00;99719.78;2071192;28;20306;-80
2021/10/14 03:58:22;;;;;;;84.03;52.13;;;;;;;3.48;100.00;99717.38;2071457;28;20235;-80
2021/10/14 03:59:24;;;;;;;88.97;51.92;;;;;;;3.49;100.00;99718.97;2072677;28;20224;-80
2021/10/14 04:00:25;;;;;;;78.72;51.33;;;;;;;3.55;100.00;99718.03;2071302;28;20224;-80
2021/10/14 04:01:26;;;;;;;79.90;49.47;;;;;;;3.54;100.00;99719.88;2075913;28;20222;-80
2021/10/14 04:02:27;;;;;;;83.32;49.55;;;;;;;3.55;100.00;99715.38;2071050;28;20348;-79
2021/10/14 04:03:29;;;;;;;77.13;46.50;;;;;;;3.55;100.00;99723.31;2064250;28;20287;-80
2021/10/14 04:04:32;;;;;;;78.05;49.55;;;;;;;3.55;100.00;99723.31;2071373;28;20219;-79
2021/10/14 04:05:34;;;;;;;85.43;50.33;;;;;;;3.58;100.00;99720.22;2072111;28;20568;-80
2021/10/14 04:06:34;;;;;;;76.50;45.88;;;;;;;3.59;100.00;99717.34;2086840;28;20745;-80
2021/10/14 04:07:36;;;;;;;74.30;47.27;;;;;;;3.64;100.00;99717.44;2077422;28;20655;-80
2021/10/14 04:08:37;;;;;;;71.35;45.45;;;;;;;3.61;100.00;99711.81;2070664;28;20223;-79
2021/10/14 04:09:40;;;;;;;75.05;47.55;;;;;;;3.63;100.00;99709.75;2071184;28;20255;-79
2021/10/14 04:10:41;;;;;;;77.18;49.60;;;;;;;3.63;100.00;99729.03;2079531;28;20698;-81
2021/10/14 04:11:43;;;;;;;76.13;47.97;;;;;;;3.64;100.00;99720.06;2079345;28;20646;-81
2021/10/14 04:12:45;;;;;;;73.10;45.33;;;;;;;3.65;100.00;99720.91;2071351;28;20224;-80
2021/10/14 04:13:47;;;;;;;77.82;48.42;;;;;;;3.67;100.00;99721.47;2079603;28;20306;-81
2021/10/14 04:14:47;;;;;;;76.13;47.15;;;;;;;3.68;100.00;99723.06;2079530;28;20277;-80
2021/10/14 04:15:49;;;;;;;70.57;46.93;;;;;;;3.68;100.00;99725.69;2079419;28;20333;-81
2021/10/14 04:16:50;;;;;;;76.28;48.88;;;;;;;3.67;100.00;99726.72;2079448;28;20227;-80
2021/10/14 04:17:51;;;;;;;78.10;47.77;;;;;;;3.69;100.00;99720.19;2079652;28;20258;-80
2021/10/14 04:18:54;;;;;;;71.95;46.72;;;;;;;3.75;100.00;99730.84;2086994;28;20226;-80
2021/10/14 04:19:59;;;;;;;75.05;48.47;;;;;;;3.74;100.00;99718.69;2087360;28;20234;-80
2021/10/14 04:21:00;;;;;;;76.05;49.17;;;;;;;3.74;100.00;99726.59;2079203;28;20318;-80
2021/10/14 04:22:01;;;;;;;73.70;50.83;;;;;;;3.75;100.00;99726.38;2080124;28;20341;-80
2021/10/14 04:23:02;;;;;;;76.93;47.80;;;;;;;3.75;100.00;99729.00;2072753;28;20367;-80
2021/10/14 04:24:04;;;;;;;69.70;45.33;;;;;;;3.84;100.00;99732.06;2081176;28;20223;-81
2021/10/14 04:25:08;;;;;;;74.75;49.72;;;;;;;3.84;100.00;99726.78;2089449;28;20219;-80
2021/10/14 04:26:13;;;;;;;74.50;48.60;;;;;;;3.87;100.00;99732.41;2088745;28;20234;-80
2021/10/14 04:27:15;;;;;;;79.13;50.50;;;;;;;3.86;100.00;99736.06;2080633;28;20246;-81
2021/10/14 04:28:16;;;;;;;72.50;47.83;;;;;;;3.85;100.00;99733.69;2081268;28;20219;-80
2021/10/14 04:29:17;;;;;;;70.78;47.05;;;;;;;3.86;100.00;99741.34;2080974;28;20231;-81
2021/10/14 04:30:19;;;;;;;72.23;46.30;;;;;;;3.92;100.00;99740.41;2080738;28;20224;-80
2021/10/14 04:31:20;;;;;;;74.40;47.90;;;;;;;3.92;100.00;99740.41;2080755;28;20223;-80
2021/10/14 04:32:24;;;;;;;74.00;47.83;;;;;;;3.91;100.00;99738.81;2080821;28;20219;-80
2021/10/14 04:33:25;;;;;;;77.72;48.95;;;;;;;3.91;100.00;99743.31;2072968;28;20224;-80
2021/10/14 04:34:27;;;;;;;71.57;46.03;;;;;;;3.89;100.00;99735.59;2078156;28;20596;-80
2021/10/14 04:35:28;;;;;;;75.22;46.75;;;;;;;3.90;100.00;99747.75;2080599;28;20698;-80
2021/10/14 04:36:30;;;;;;;72.83;46.30;;;;;;;3.89;100.00;99751.44;2072463;28;20529;-80
2021/10/14 04:37:31;;;;;;;70.78;46.58;;;;;;;3.95;100.00;99744.41;2072721;28;20259;-80
2021/10/14 04:38:33;;;;;;;72.77;46.60;;;;;;;3.96;100.00;99746.03;2072248;28;20722;-80
2021/10/14 04:39:34;;;;;;;72.20;45.58;;;;;;;3.94;100.00;99740.97;2072332;28;20797;-80
2021/10/14 04:40:39;;;;;;;68.30;45.90;;;;;;;3.95;100.00;99755.78;2072111;28;20641;-80
2021/10/14 04:41:41;;;;;;;72.82;45.35;;;;;;;3.94;100.00;99745.47;2066285;28;20806;-80
2021/10/14 04:42:43;;;;;;;69.88;44.50;;;;;;;3.92;100.00;99745.69;2079609;28;20306;-80
2021/10/14 04:43:44;;;;;;;68.80;45.80;;;;;;;3.93;100.00;99752.56;2081590;28;20222;-80
2021/10/14 04:44:45;;;;;;;61.83;41.80;;;;;;;3.96;100.00;99751.31;2080778;28;20307;-80